CYAB

Arctic Bay 

Arctic Bay, , Canada

CYAB 232200Z 30005KT 25SM FEW010 SCT017 BKN030 M02/M04 A2997 RMK SC1SC2SC4 -0.9/-2.2/0.0/LAST STFD OBS/NEXT 251100Z/SNW CVR/MUCH LOOSE VIS SE 10 BR CIG EST SLP152

Observed Flight Rules
Sep-23 @ 22:00 UTC (23 hours ago)
 
Marginal Visual Flight Rules
Wind Visibility Clouds
300° at 5 knots 25 miles
  • Few at 1,000' AGL
  • Scattered at 1,700' AGL
  • Broken at 3,000' AGL
Temperatures Readings
Current -2°C / 28°F
Dewpoint -4°C / 25°F
Humidity 86%
Altimeter 29.97" Hg
Pressure 1015.2 hPa
Elevation 22
Observed Flight Rules
Sep-23 @ 22:00 UTC
(23 hours ago)
 
MVFR
Wind Visibility
300° at 5 knots 25 miles
Clouds
  • Few at 1,000' AGL
  • Scattered at 1,700' AGL
  • Broken at 3,000' AGL
Temperature Dewpoint
-2°C / 28°F -4°C / 25°F
Humidity Altimeter Pressure
86% 29.97" Hg 1015.2 hPa